ADDS METAR Data INFO
IDs: Format: Raw Decoded Include TAF

Data at: 1415 UTC 12 Dec 2017

KOZW 121356Z AUTO 31012G17KT 10SM SCT033 M09/M13 A2984 RMK AO2 T10861131
KOZW 121335Z AUTO 31010G17KT 10SM SCT033 M09/M13 A2983 RMK AO2 T10861130
KOZW 121315Z AUTO 31011KT 10SM SCT016 SCT024 BKN034 M08/M12 A2983 RMK AO2 T10841124
KOZW 121255Z AUTO 30009G14KT 10SM SCT015 BKN032 OVC043 M08/M12 A2982 RMK AO2 T10801120
KOZW 121235Z AUTO 31014G20KT 10SM BKN032 BKN043 M08/M12 A2981 RMK AO2 T10801120
KOZW 121216Z AUTO 30010G18KT 10SM BKN032 BKN037 M08/M12 A2981 RMK AO2 T10781120
KOZW 121155Z AUTO 32012G22KT 10SM BKN034 BKN040 M07/M13 A2980 RMK AO2 70002 T10731126 11010 21075
KOZW 121135Z AUTO 32011G24KT 10SM SCT036 M07/M13 A2979 RMK AO2 T10721130
KOZW 121115Z AUTO 32018G23KT 10SM SCT060 M07/M12 A2978 RMK AO2 T10701123
KOZW 121055Z AUTO 33017G24KT 5SM HZ BKN060 M06/M12 A2976 RMK AO2 T10641118
KOZW 121035Z AUTO 32010G25KT 7SM SCT024 SCT033 OVC050 M06/M11 A2976 RMK AO2 T10601113
KOZW 121015Z AUTO 31017G25KT 4SM -SN SCT015 BKN024 OVC032 M05/M09 A2975 RMK AO2 T10551095
KOZW 120955Z AUTO 32015G23KT 3SM -SN SCT017 BKN030 OVC050 M05/M08 A2973 RMK AO2 T10491079
KOZW 120935Z AUTO 32015G21KT 7SM SCT022 BKN030 OVC050 M04/M08 A2972 RMK AO2 T10441080
KOZW 120915Z AUTO 31016G23KT 7SM -SN SCT019 BKN027 OVC042 M04/M07 A2972 RMK AO2 T10401066
KOZW 120855Z AUTO 32015G23KT 3SM -SN BKN016 BKN035 OVC040 M04/M06 A2971 RMK AO2 T10391059
KOZW 120835Z AUTO 31016G21KT 3SM -SN BKN016 OVC025 M03/M05 A2971 RMK AO2 T10341047
KOZW 120815Z AUTO 32009G18KT 4SM -SN SCT016 BKN023 OVC038 M03/M05 A2970 RMK AO2 T10321049
KOZW 120755Z AUTO 32015G19KT 5SM -SN BKN011 BKN016 OVC035 M03/M05 A2969 RMK AO2 T10281047
KOZW 120735Z AUTO 33009KT 2 1/2SM -SN OVC013 M02/M03 A2968 RMK AO2 T10251032
KOZW 120715Z AUTO 34010G20KT 1 1/2SM -SN OVC015 M02/M03 A2968 RMK AO2 T10221035
KOZW 120655Z AUTO 33015G25KT 7SM -SN BKN014 OVC020 M02/M03 A2967 RMK AO2 T10171035
KOZW 120635Z AUTO 32014G19KT 4SM -SN BKN010 OVC015 M01/M02 A2966 RMK AO2 T10151023
KOZW 120615Z AUTO 32012G17KT 5SM BR OVC008 M01/M02 A2965 RMK AO2 T10111019
KOZW 120555Z AUTO 31012G15KT 3SM UP OVC006 M01/M01 A2965 RMK AO2 60002 T10101012 11010 21022 410101067
KOZW 120536Z AUTO 31010KT 1 3/4SM UP OVC004 M01/M01 A2965 RMK AO2 T10121013
KOZW 120515Z AUTO 29007KT 1 3/4SM UP BKN006 OVC014 M02/M02 A2965 RMK AO2 T10171019
KOZW 120455Z AUTO 27005KT 4SM BR OVC018 M02/M02 A2965 RMK AO2 T10201022
KOZW 120435Z AUTO 26005KT 4SM BR BKN023 BKN031 OVC039 M02/M02 A2966 RMK AO2 T10211023
KOZW 120415Z AUTO 27004KT 4SM BR SCT026 BKN033 OVC039 M02/M02 A2966 RMK AO2 T10211023
KOZW 120355Z AUTO 27003KT 4SM BR OVC031 M02/M02 A2967 RMK AO2 T10211023
KOZW 120335Z AUTO 27003KT 4SM BR OVC031 M02/M02 A2967 RMK AO2 T10211022
KOZW 120315Z AUTO 00000KT 3SM BR OVC033 M02/M02 A2968 RMK AO2 T10211022
KOZW 120256Z AUTO 00000KT 3SM -SN SCT016 OVC037 M02/M02 A2968 RMK AO2 P0001 60002 T10211023
KOZW 120235Z AUTO 22003KT 4SM BR SCT016 SCT031 OVC037 M02/M02 A2969 RMK AO2 P0001 T10201022
KOZW 120215Z AUTO 20003KT 2 1/2SM -SN BKN031 OVC039 M02/M02 A2970 RMK AO2 P0001 T10211023
KOZW 120155Z AUTO 21003KT 3SM -SN BKN031 OVC039 M02/M02 A2970 RMK AO2 T10201023
KOZW 120135Z AUTO 18004KT 2SM -SN SCT005 BKN017 OVC029 M02/M02 A2971 RMK AO2 T10201023
KOZW 120115Z AUTO 19005KT 1 1/2SM -SN SCT005 OVC016 M02/M02 A2972 RMK AO2 T10201023
KOZW 120055Z AUTO 20003KT 1 3/4SM -SN BKN007 OVC016 M02/M02 A2972 RMK AO2 P0001 T10201023
KOZW 120035Z AUTO 18005KT 3SM -SN BKN007 OVC021 M02/M02 A2972 RMK AO2 P0001 T10211025
KOZW 120015Z AUTO 17005KT 1SM -SN OVC007 M02/M02 A2972 RMK AO2 P0001 T10221025
KOZW 112355Z AUTO 16005KT 1 1/2SM -SN OVC007 M02/M02 A2972 RMK AO2 T10221025 11020 21032
KOZW 112335Z AUTO 17004KT 2SM -SN SCT005 BKN016 OVC023 M02/M03 A2972 RMK AO2 T10231026
KOZW 112315Z AUTO 15007KT 1 3/4SM -SN SCT005 BKN012 OVC019 M02/M03 A2972 RMK AO2 T10231027
KOZW 112255Z AUTO 16007KT 2SM -SN SCT009 OVC014 M02/M03 A2972 RMK AO2 T10231029
KOZW 112235Z AUTO 16007KT 4SM -SN BKN014 BKN036 OVC049 M02/M03 A2973 RMK AO2 T10201035
KOZW 112215Z AUTO 16007KT 10SM BKN014 OVC060 M02/M04 A2973 RMK AO2 T10201036
KOZW 112155Z AUTO 16007KT 10SM OVC012 M02/M03 A2975 RMK AO2 T10201035
KOZW 112135Z AUTO 17010KT 10SM OVC012 M02/M03 A2975 RMK AO2 T10201035
KOZW 112115Z AUTO 15008KT 10SM OVC014 M02/M03 A2976 RMK AO2 T10201033
KOZW 112055Z AUTO 15008KT 10SM OVC014 M02/M03 A2976 RMK AO2 T10201033
KOZW 112035Z AUTO 16008KT 10SM BKN012 OVC020 M02/M03 A2978 RMK AO2 T10201032
KOZW 112015Z AUTO 14008KT 7SM OVC012 M02/M03 A2978 RMK AO2 T10211032
KOZW 111955Z AUTO 17005KT 7SM BKN008 OVC014 M02/M03 A2979 RMK AO2 T10221033
KOZW 111935Z AUTO 17006KT 7SM OVC008 M02/M03 A2980 RMK AO2 T10241032
KOZW 111855Z AUTO 15008KT 3SM BR BKN008 OVC013 M03/M03 A2982 RMK AO2 T10281034
KOZW 111835Z AUTO 15008KT 3SM BR OVC008 M03/M04 A2984 RMK AO2 T10301036
KOZW 111815Z AUTO 16004KT 3SM BR OVC010 M03/M04 A2985 RMK AO2 T10311039
KOZW 111755Z AUTO 16006KT 3SM BR OVC010 M03/M04 A2987 RMK AO2 T10311040 11031 21060
KOZW 111735Z AUTO 17006KT 5SM BR BKN012 BKN027 OVC043 M03/M04 A2989 RMK AO2 T10321045
KOZW 111715Z AUTO 15005KT 7SM -SN SCT010 BKN044 OVC050 M03/M05 A2990 RMK AO2 T10331046
KOZW 111655Z AUTO 15006KT 2 1/2SM -SN SCT012 BKN025 OVC055 M03/M04 A2991 RMK AO2 T10351045
KOZW 111635Z AUTO 16006KT 1SM -SN BKN011 OVC016 M04/M05 A2993 RMK AO2 T10381047
KOZW 111615Z AUTO 15005KT 1SM -SN BKN009 OVC016 M04/M05 A2994 RMK AO2 T10411050
KOZW 111555Z AUTO 15005KT 1 1/4SM -SN SCT011 BKN019 OVC027 M04/M05 A2995 RMK AO2 T10451052
KOZW 111535Z AUTO 15005KT 3/4SM -SN OVC014 M05/M05 A2996 RMK AO2 T10471055
KOZW 111515Z AUTO 15005KT 3/4SM -SN OVC012 M05/M06 A2996 RMK AO2 T10511058
KOZW 111455Z AUTO 14007KT 3/4SM -SN OVC016 M05/M06 A2995 RMK AO2 T10531061
KOZW 111435Z AUTO 14006KT 1SM -SN OVC016 M05/M07 A2996 RMK AO2 T10531067
KOZW 111415Z AUTO 14007KT 7SM -SN SCT016 SCT023 OVC031 M05/M07 A2998 RMK AO2 T10521075
KOZW 111355Z AUTO 13005KT 10SM SCT018 OVC031 M05/M08 A2998 RMK AO2 T10551079
KOZW 111335Z AUTO 14005KT 10SM OVC031 M05/M08 A3000 RMK AO2 T10551080
KOZW 111315Z AUTO 13004KT 10SM OVC031 M05/M08 A2999 RMK AO2 T10551077
KOZW 111255Z AUTO 13005KT 10SM OVC031 M06/M08 A3001 RMK AO2 T10561077
KOZW 111235Z AUTO 00000KT 10SM OVC031 M06/M08 A3003 RMK AO2 T10571077
KOZW 111215Z AUTO 00000KT 10SM OVC031 M06/M08 A3001 RMK AO2 T10571078
KOZW 111155Z AUTO 00000KT 10SM OVC031 M06/M08 A3001 RMK AO2 T10581080 11045 21067
KOZW 111135Z AUTO 08003KT 10SM OVC031 M06/M08 A3000 RMK AO2 T10601077
KOZW 111115Z AUTO 09003KT 10SM OVC031 M06/M08 A3000 RMK AO2 T10601076
KOZW 111055Z AUTO 09003KT 10SM OVC031 M06/M08 A3000 RMK AO2 T10601077
KOZW 111035Z AUTO 00000KT 10SM OVC031 M06/M08 A3000 RMK AO2 T10601079
KOZW 111015Z AUTO 00000KT 10SM OVC031 M06/M08 A3000 RMK AO2 T10601080
KOZW 110955Z AUTO 00000KT 10SM OVC033 M06/M08 A3002 RMK AO2 T10571078
KOZW 110935Z AUTO 34003KT 10SM OVC033 M06/M08 A3001 RMK AO2 T10571077
KOZW 110915Z AUTO 00000KT 10SM OVC035 M06/M08 A3002 RMK AO2 T10561080
KOZW 110855Z AUTO 34004KT 10SM OVC037 M06/M08 A3003 RMK AO2 T10561077
KOZW 110835Z AUTO 33003KT 10SM SCT024 OVC039 M06/M07 A3001 RMK AO2 T10641074
KOZW 110815Z AUTO 30003KT 10SM SCT024 OVC041 M07/M08 A3001 RMK AO2 T10671078
KOZW 110755Z AUTO 30003KT 10SM SCT017 OVC043 M06/M08 A3001 RMK AO2 T10651078
KOZW 110735Z AUTO 30004KT 10SM BKN017 OVC043 M05/M07 A3000 RMK AO2 T10551068
KOZW 110715Z AUTO 29003KT 10SM OVC017 M05/M06 A3000 RMK AO2 T10491062
KOZW 110655Z AUTO 30004KT 10SM OVC017 M05/M06 A3000 RMK AO2 T10471061
KOZW 110635Z AUTO 32005KT 10SM OVC017 M05/M06 A2999 RMK AO2 T10471062
KOZW 110615Z AUTO 32005KT 10SM BKN017 OVC044 M05/M06 A2998 RMK AO2 T10461062
KOZW 110555Z AUTO 32007KT 10SM SCT017 OVC044 M04/M06 A2999 RMK AO2 T10441060 11030 21046 410301063
KOZW 110535Z AUTO 31006KT 10SM SCT017 OVC044 M04/M05 A2999 RMK AO2 T10401055
KOZW 110515Z AUTO 30006KT 10SM SCT024 OVC044 M04/M05 A2999 RMK AO2 T10411055
KOZW 110455Z AUTO 30006KT 10SM BKN024 OVC042 M04/M05 A2999 RMK AO2 T10401053
KOZW 110435Z AUTO 30006KT 10SM BKN022 OVC046 M04/M06 A2998 RMK AO2 T10441056
KOZW 110415Z AUTO 29008KT 10SM SCT022 OVC046 M04/M05 A2997 RMK AO2 T10401055
KOZW 110355Z AUTO 29007KT 10SM OVC042 M03/M05 A2996 RMK AO2 T10351049
KOZW 110335Z AUTO 29005KT 10SM SCT030 SCT038 OVC046 M03/M05 A2996 RMK AO2 T10351047
KOZW 110315Z AUTO 30005KT 10SM BKN034 BKN042 OVC110 M03/M05 A2996 RMK AO2 T10351046
KOZW 110255Z AUTO 30008KT 10SM SCT011 SCT020 OVC032 M03/M04 A2996 RMK AO2 T10331043
KOZW 110235Z AUTO 30008KT 10SM BKN011 OVC019 M03/M04 A2995 RMK AO2 T10321040